Latest Coastal Weather Observations for Taree Airport

IDN60701

Issued at 2:31 pm EDT Thursday 19 October 2017 (issued every 10 minutes, with the page automatically refreshed every 10 minutes)

About coastal observations | Map of coastal stations | Coastal observations for NSW | Marine services | Other Formats
Station Details ID: 060141 Name: TAREE AIRPORT AWS Lat: -31.89 Lon: 152.51 Height: 8.0 m
Data from the previous 72 hours. | See also: Recent months at Taree Airport
Date/Time
EDT
Temp
°C
Wind Pressure Rain since
9am
mm
Weather Cloud Vis
km
Sea
Height
m
Swell
Dir  Spd
kts
Gust
kts
hPa Trend Height
m
Period
s
Dir
19/02:30pm 26.9 NE 12 20 1021.9 - 0.0 - Clear 10 - - - -
19/02:00pm 26.1 NE 11 17 1022.5 - 0.0 - - 10 - - - -
19/01:30pm 26.1 N 10 17 1022.9 - 0.0 - Partly cloudy 10 - - - -
19/01:00pm 26.0 NE 14 20 1023.5 - 0.0 - Partly cloudy 10 - - - -
19/12:30pm 25.3 NNE 11 18 1024.1 - 0.0 - Partly cloudy 10 - - - -
19/12:00pm 24.2 NE 15 21 1024.6 - 0.0 - Mostly clear 10 - - - -
19/11:30am 23.4 NNE 11 17 1025.2 - 0.0 - Partly cloudy 10 - - - -
19/11:00am 22.8 N 9 16 1025.9 - 0.0 - Partly cloudy 10 - - - -
19/10:30am 22.6 NNE 10 15 1026.2 - 0.0 - Partly cloudy 10 - - - -
19/10:00am 21.9 NNE 12 19 1026.4 - 0.0 - Partly cloudy 10 - - - -
19/09:30am 22.2 NNE 11 18 1026.6 - 0.0 - Partly cloudy 10 - - - -
19/09:00am 21.1 NNE 9 16 1026.6 - 0.0 - Mostly cloudy 10 - - - -
19/08:30am 20.5 NNE 8 15 1026.4 - 0.0 - - 10 - - - -
19/08:00am 19.6 NE 7 9 1026.4 - 0.0 - Partly cloudy 10 - - - -
19/07:30am 17.7 NNE 5 6 1026.4 - 0.0 - - 10 - - - -
19/07:00am 15.2 NE 5 7 1026.2 - 0.0 - - - - - - -
19/06:30am 12.9 NE 5 6 1025.8 - 0.0 - - - - - - -
19/06:00am 13.4 NE 4 5 1025.7 - 0.0 - - - - - - -
19/05:30am 12.9 NE 4 6 1025.6 - 0.0 - - - - - - -
19/05:00am 12.7 NE 3 4 1025.4 - 0.0 - - - - - - -
19/04:30am 13.8 CALM 0 0 1025.5 - 0.0 - - 10 - - - -
19/04:00am 12.3 CALM 0 4 1025.5 - 0.0 - - 10 - - - -
19/03:30am 13.3 ENE 3 4 1025.7 - 0.0 - - 10 - - - -
19/03:00am 13.7 NE 5 6 1026.1 - 0.0 - - 10 - - - -
19/02:30am 13.5 ENE 5 6 1026.5 - 0.0 - - 10 - - - -
19/02:00am 14.8 NE 3 4 1026.7 - 0.0 - - 10 - - - -
19/01:30am 14.9 NE 3 4 1026.9 - 0.0 - - 10 - - - -
19/01:00am 15.2 NNE 3 4 1027.3 - 0.0 - - 10 - - - -
19/12:30am 15.7 NNE 3 4 1027.7 - 0.0 - - 10 - - - -
19/12:00am 16.6 NE 4 5 1027.7 - 0.0 - - 10 - - - -
 
Date/Time
EDT
Temp
°C
Wind Pressure Rain since
9am
mm
Weather Cloud Vis
km
Sea
Height
m
Swell
Dir  Spd
kts
Gust
kts
hPa Trend Height
m
Period
s
Dir
18/11:30pm 16.7 CALM 0 0 1027.9 - 0.0 - - 10 - - - -
18/11:00pm 17.7 N 3 5 1028.0 - 0.0 - - 10 - - - -
18/10:30pm 17.9 NNE 5 7 1028.0 - 0.0 - - 10 - - - -
18/10:00pm 18.3 NE 6 8 1027.9 - 0.0 - Partly cloudy 10 - - - -
18/09:30pm 17.7 NNE 3 4 1027.8 - 0.0 - Partly cloudy 10 - - - -
18/09:00pm 17.8 NE 5 8 1027.7 - 0.0 - - 10 - - - -
18/08:30pm 18.0 NE 7 9 1027.4 - 0.0 - - 10 - - - -
18/08:00pm 17.7 NE 7 8 1027.3 - 0.0 - - 10 - - - -
18/07:30pm 18.9 ENE 9 15 1026.9 - 0.0 - - 10 - - - -
18/07:00pm 19.6 NE 10 12 1026.7 - 0.0 - Partly cloudy 10 - - - -
18/06:30pm 19.9 NE 12 17 1026.5 - 0.0 - Partly cloudy 10 - - - -
18/06:00pm 20.6 ENE 16 19 1026.2 - 0.0 - - 10 - - - -
18/05:30pm 21.7 ENE 18 24 1026.0 - 0.0 - Partly cloudy 10 - - - -
18/05:00pm 21.9 ENE 18 22 1025.8 - 0.0 - Partly cloudy 10 - - - -
18/04:30pm 22.5 ENE 18 24 1025.7 - 0.0 - Partly cloudy 10 - - - -
18/04:00pm 22.8 ENE 17 22 1025.6 - 0.0 - Partly cloudy 10 - - - -
18/03:30pm 22.4 ENE 18 24 1025.7 - 0.0 - Partly cloudy 10 - - - -
18/03:00pm 22.7 ENE 18 24 1026.1 - 0.0 - Cloudy 10 - - - -
18/02:30pm 23.2 ENE 19 27 1026.1 - 0.0 - Partly cloudy 10 - - - -
18/02:00pm 24.0 ENE 21 28 1026.4 - 0.0 - Partly cloudy 10 - - - -
18/01:30pm 23.5 ENE 19 26 1026.7 - 0.0 - Partly cloudy 10 - - - -
18/01:00pm 23.5 NE 19 26 1027.1 - 0.0 - Partly cloudy 10 - - - -
18/12:30pm 23.7 ENE 17 23 1027.5 - 0.0 - Partly cloudy 10 - - - -
18/12:00pm 22.9 NE 17 21 1028.0 - 0.0 - Cloudy 10 - - - -
18/11:30am 22.7 ENE 16 20 1028.4 - 0.0 - Partly cloudy 10 - - - -
18/11:00am 24.0 NE 16 20 1028.7 - 0.0 - Partly cloudy 10 - - - -
18/10:30am 22.3 ENE 15 20 1028.8 - 0.0 - Partly cloudy 10 - - - -
18/10:00am 21.9 NE 17 22 1028.7 - 0.0 - Partly cloudy 10 - - - -
18/09:30am 22.8 NE 13 18 1028.7 - 0.0 - Partly cloudy 10 - - - -
18/09:00am 20.7 NE 7 11 1028.7 - 0.0 - Cloudy 10 - - - -
18/08:30am 19.5 NE 4 6 1028.5 - 0.0 - Partly cloudy 10 - - - -
18/08:00am 18.4 N 3 5 1028.1 - 0.0 - Partly cloudy 10 - - - -
18/07:30am 17.9 CALM 0 0 1027.8 - 0.0 - Partly cloudy 10 - - - -
18/07:00am 16.9 CALM 0 0 1027.6 - 0.0 - Partly cloudy 10 - - - -
18/06:30am 16.4 NNE 2 4 1027.4 - 0.0 - Partly cloudy 10 - - - -
18/06:00am 15.4 CALM 0 4 1027.0 - 0.0 - Mostly cloudy 10 - - - -
18/05:30am 15.0 CALM 0 0 1026.7 - 0.0 - Cloudy 10 - - - -
18/05:00am 15.0 CALM 0 0 1026.3 - 0.0 - Partly cloudy 10 - - - -
18/04:30am 15.7 CALM 0 0 1026.1 - 0.0 - Partly cloudy 10 - - - -
18/04:00am 16.3 CALM 0 2 1026.2 - 0.0 - Partly cloudy 10 - - - -
18/03:30am 16.4 SSE 4 5 1026.4 - 0.0 - Partly cloudy 10 - - - -
18/03:00am 16.6 NE 2 5 1026.9 - 0.0 - Cloudy 10 - - - -
18/02:30am 17.1 E 7 8 1027.0 - 0.0 - Partly cloudy 10 - - - -
18/02:00am 17.4 ENE 9 11 1027.5 - 0.0 - Cloudy 10 - - - -
18/01:30am 17.3 ENE 10 16 1027.9 - 0.0 - Partly cloudy 10 - - - -
18/01:00am 17.8 ENE 9 16 1028.0 - 0.0 - Partly cloudy 10 - - - -
18/12:30am 17.3 ENE 6 7 1027.9 - 0.0 - Partly cloudy 10 - - - -
18/12:00am 17.2 E 5 7 1027.8 - 0.0 - Mostly clear 10 - - - -
 
Date/Time
EDT
Temp
°C
Wind Pressure Rain since
9am
mm
Weather Cloud Vis
km
Sea
Height
m
Swell
Dir  Spd
kts
Gust
kts
hPa Trend Height
m
Period
s
Dir
17/11:30pm 16.9 ENE 6 7 1028.0 - 0.0 - Partly cloudy 10 - - - -
17/11:00pm 16.0 NE 6 7 1027.9 - 0.0 - Partly cloudy 10 - - - -
17/10:30pm 17.3 ENE 5 7 1027.8 - 0.0 - Partly cloudy 10 - - - -
17/10:00pm 17.5 NE 4 5 1027.7 - 0.0 - Partly cloudy 10 - - - -
17/09:30pm 17.3 NE 5 6 1027.5 - 0.0 - Partly cloudy 10 - - - -
17/09:00pm 18.9 ENE 8 11 1027.4 - 0.0 - Mostly cloudy 10 - - - -
17/08:30pm 18.6 ENE 8 12 1027.2 - 0.0 - Partly cloudy 10 - - - -
17/08:00pm 18.9 ENE 9 14 1027.0 - 0.0 - Partly cloudy 10 - - - -
17/07:30pm 19.0 ENE 9 11 1026.8 - 0.0 - Partly cloudy 10 - - - -
17/07:00pm 19.9 E 9 14 1026.6 - 0.0 - Partly cloudy 10 - - - -
17/06:30pm 19.8 ENE 11 15 1026.4 - 0.0 - Partly cloudy 10 - - - -
17/06:00pm 20.5 ENE 11 16 1026.3 - 0.0 - Cloudy 10 - - - -
17/05:30pm 20.7 ENE 15 19 1026.0 - 0.0 - Partly cloudy 10 - - - -
17/05:00pm 21.0 NE 16 21 1025.8 - 0.0 - Partly cloudy 10 - - - -
17/04:30pm 22.0 ENE 16 21 1025.6 - 0.0 - Partly cloudy 10 - - - -
17/04:00pm 22.6 E 14 19 1025.5 - 0.0 - Partly cloudy 10 - - - -
17/03:30pm 23.6 ENE 14 19 1025.6 - 0.0 - - 10 - - - -
17/03:00pm 22.5 E 14 20 1025.9 - 0.0 - Mostly clear 10 - - - -
17/02:30pm 23.0 E 16 20 1026.2 - 0.0 - Partly cloudy 10 - - - -
17/02:00pm 22.3 E 16 20 1026.2 - 0.0 - Partly cloudy 10 - - - -
17/01:30pm 22.5 E 15 22 1026.3 - 0.0 - Partly cloudy 10 - - - -
17/01:00pm 22.8 ESE 14 21 1026.3 - 0.0 - Partly cloudy 10 - - - -
17/12:30pm 23.1 E 15 20 1026.3 - 0.0 - Partly cloudy 10 - - - -
17/12:00pm 21.7 E 15 21 1026.5 - 0.0 - Cloudy 10 - - - -
17/11:30am 21.3 E 15 20 1027.0 - 0.0 - Partly cloudy 10 - - - -
17/11:00am 21.6 E 15 21 1027.0 - 0.0 - Partly cloudy 10 - - - -
17/10:30am 21.8 ESE 13 18 1027.2 - 0.0 - Partly cloudy 10 - - - -
17/10:00am 22.8 E 14 19 1027.1 - 0.0 - Partly cloudy 10 - - - -
17/09:30am 22.4 ENE 13 17 1027.0 - 0.0 - Partly cloudy 10 - - - -
17/09:00am 21.1 E 12 17 1027.2 - 0.2 Recent precip. Cloudy 10 - - - -
17/08:30am 20.1 E 5 7 1027.3 - 0.2 - Partly cloudy 10 - - - -
17/08:00am 17.6 CALM 0 0 1027.5 - 0.0 - Partly cloudy 10 - - - -
17/07:30am 16.5 WSW 4 4 1027.1 - 0.0 - Partly cloudy 10 - - - -
17/07:00am 15.1 W 1 4 1027.0 - 0.0 - Cloudy 10 - - - -
17/06:30am 14.6 CALM 0 0 1026.7 - 0.0 - Cloudy 10 - - - -
17/06:00am 14.2 W 3 4 1026.3 - 0.0 - Cloudy 10 - - - -
17/05:30am 14.1 W 4 4 1026.0 - 0.0 - Cloudy 10 - - - -
17/05:00am 14.1 W 3 4 1025.9 - 0.0 - Cloudy 10 - - - -
17/04:30am 13.4 CALM 0 0 1025.7 - 0.0 - Partly cloudy 10 - - - -
17/04:00am 13.7 WSW 2 4 1025.7 - 0.0 - Partly cloudy 10 - - - -
17/03:30am 14.1 WSW 1 4 1025.7 - 0.0 - Partly cloudy 10 - - - -
17/03:00am 14.3 CALM 0 1 1025.8 - 0.0 - Partly cloudy 10 - - - -
17/02:30am 14.5 W 3 4 1026.1 - 0.0 - Partly cloudy 10 - - - -
17/02:00am 15.0 CALM 0 0 1026.4 - 0.0 - Partly cloudy 10 - - - -
17/01:30am 15.4 CALM 0 0 1026.7 - 0.0 - Partly cloudy 10 - - - -
17/01:00am 15.3 CALM 0 0 1026.9 - 0.0 - Partly cloudy 10 - - - -
17/12:30am 16.0 CALM 0 0 1026.9 - 0.0 - Partly cloudy 10 - - - -
17/12:00am 15.8 CALM 0 0 1027.2 - 0.0 - Mostly cloudy 10 - - - -
 
Date/Time
EDT
Temp
°C
Wind Pressure Rain since
9am
mm
Weather Cloud Vis
km
Sea
Height
m
Swell
Dir  Spd
kts
Gust
kts
hPa Trend Height
m
Period
s
Dir
16/11:30pm 16.0 CALM 0 0 1027.1 - 0.0 - - 10 - - - -
16/11:00pm 16.7 CALM 0 3 1027.3 - 0.0 - Partly cloudy 10 - - - -
16/10:30pm 17.0 NE 2 4 1027.2 - 0.0 - Partly cloudy 10 - - - -
16/10:00pm 16.7 E 4 5 1027.2 - 0.0 - Partly cloudy 10 - - - -
16/09:30pm 16.3 E 4 4 1027.2 - 0.0 - - 10 - - - -
16/09:00pm 16.5 E 3 4 1027.2 - 0.0 - - 10 - - - -
16/08:30pm 16.4 ENE 3 4 1026.8 - 0.0 - Partly cloudy 10 - - - -
16/08:00pm 17.2 ENE 5 6 1026.9 - 0.0 - - 10 - - - -
16/07:30pm 17.6 E 5 6 1026.6 - 0.0 - - 10 - - - -
16/07:00pm 18.3 E 7 10 1026.5 - 0.0 - - 10 - - - -
16/06:30pm 19.2 E 7 10 1026.2 - 0.0 - - 10 - - - -
16/06:00pm 19.4 ESE 7 10 1026.0 - 0.0 - Partly cloudy 10 - - - -
16/05:30pm 19.8 ESE 11 15 1026.0 - 0.0 - Partly cloudy 10 - - - -
16/05:00pm 20.1 E 9 14 1025.6 - 0.0 - Partly cloudy 10 - - - -
16/04:30pm 20.2 ESE 8 13 1025.4 - 0.0 - Partly cloudy 10 - - - -
16/04:00pm 20.9 SE 10 14 1025.6 - 0.0 - - 10 - - - -
16/03:30pm 20.8 ESE 11 16 1025.5 - 0.0 - Partly cloudy 10 - - - -
16/03:00pm 22.3 E 11 15 1025.6 - 0.0 - Partly cloudy 10 - - - -

Other Formats:

Comma delimited format used in spreadsheet applications
http://www.bom.gov.au/fwo/IDN60701/IDN60701.95784.axf

JavaScript Object Notation format (JSON) in row-major order
http://www.bom.gov.au/fwo/IDN60701/IDN60701.95784.json